• Join FlightAware (Why Join?)
  • Login
  • US Flag 
09:59AM EDT


 

Airport Tracker/Info


-or-


 

Live Flight TrackerFlight Track Log ✈ AAR317 ✈ 31-Jan-2014 ✈ RKSI / ICN - ZSQD / TAO

Flight Track Log - Related Links

Times and Time Zones

All times are in EST time to prevent confusion due to time zone crossing. See the AAR317 flight status page for this flight to view local times or setup timezone preferences in your user account.

Time Position Orientation Groundspeed Altitude Reporting Facility
EST Latitude Longitude Course Direction KTS MPH feet Rate Location/Type
07:27PM 37.4465 126.0189 257° West  Level Estimated
07:28PM 37.4302 125.9299 257° West  Level Estimated
07:29PM 37.4139 125.8410 257° West  Level Estimated
07:30PM 37.3975 125.7521 257° West  Level Estimated
07:31PM 37.3795 125.6547 257° West  Level Estimated
07:32PM 37.3613 125.5575 257° West  Level Estimated
07:33PM 37.3431 125.4602 257° West  Level Estimated
07:34PM 37.3249 125.3631 257° West  Level Estimated
07:35PM 37.3065 125.2659 257° West  Level Estimated
07:36PM 37.2881 125.1688 257° West  Level Estimated
07:37PM 37.2695 125.0718 257° West  Level Estimated
07:38PM 37.2509 124.9748 256° West  Level Estimated
07:39PM 37.2323 124.8779 256° West  Level Estimated
07:40PM 37.2135 124.7810 256° West  Level Estimated
07:41PM 37.1947 124.6841 256° West  Level Estimated
07:42PM 37.1758 124.5873 256° West  Level Estimated
07:43PM 37.1568 124.4906 256° West  Level Estimated
07:44PM 37.1377 124.3939 256° West  Level Estimated
07:45PM 37.1185 124.2972 256° West  Level Estimated
07:46PM 37.0993 124.2006 256° West  Level Estimated
07:47PM 37.0800 124.1041 256° West  Level Estimated
07:48PM 37.0606 124.0076 256° West  Level Estimated
07:49PM 37.0412 123.9111 256° West  Level Estimated
07:50PM 37.0216 123.8147 256° West  Level Estimated
07:51PM 37.0020 123.7184 256° West  Level Estimated
07:52PM 36.9823 123.6221 256° West  Level Estimated
07:53PM 36.9625 123.5258 256° West  Level Estimated
07:54PM 36.9427 123.4296 256° West  Level Estimated
07:55PM 36.9228 123.3334 255° West  Level Estimated
07:56PM 36.9027 123.2373 255° West  Level Estimated
07:57PM 36.8827 123.1413 255° West  Level Estimated
07:58PM 36.8625 123.0453 255° West  Level Estimated
07:59PM 36.8423 122.9493 255° West  Level Estimated
08:00PM 36.8219 122.8534 255° West  Level Estimated
08:01PM 36.8016 122.7576 255° West  Level Estimated
08:02PM 36.7811 122.6618 255° West  Level Estimated
08:03PM 36.7605 122.5660 255° West  Level Estimated
08:04PM 36.7399 122.4703 255° West  Level Estimated
08:05PM 36.7192 122.3747 255° West  Level Estimated
08:06PM 36.6984 122.2791 255° West  Level Estimated
08:07PM 36.6776 122.1836 255° West  Level Estimated
08:08PM 36.6567 122.0881 255° West  Level Estimated
08:09PM 36.6357 121.9926 255° West  Level Estimated
08:10PM 36.6146 121.8972 255° West  Level Estimated
08:11PM 36.5934 121.8019 255° West  Level Estimated
08:12PM 36.5722 121.7066 255° West  Level Estimated
08:13PM 36.5509 121.6114 254° West  Level Estimated
08:14PM 36.5295 121.5162 254° West  Level Estimated
08:15PM 36.5080 121.4211 254° West  Level Estimated
08:16PM 36.4865 121.3260 254° West  Level Estimated
08:17PM 36.4649 121.2310 254° West  Level Estimated
08:18PM 36.4432 121.1360 254° West  Level Estimated
08:19PM 36.4214 121.0411 254° West  Level Estimated
08:20PM 36.3996 120.9463 254° West  Level Estimated
08:21PM 36.3777 120.8515 254° West  Level Estimated
08:22PM 36.3557 120.7567 254° West  Level Estimated
08:23PM 36.3336 120.6620 254° West  Level Estimated
08:24PM 36.3115 120.5674 254° West  Level Estimated
08:25PM 36.2893 120.4728 254° West  Level Estimated
08:26PM 36.2670 120.3782 254° West  Level Estimated
08:27PM 36.2661 120.3744 254° West  Level Estimated
08:28PM 36.2661 120.3744 238° Southwest  Level Estimated
08:29PM 36.2661 120.3744 238° Southwest  Level Estimated
08:30PM 36.2661 120.3744 238° Southwest  Level Estimated
08:31PM 36.2661 120.3744 238° Southwest  Level Estimated
08:32PM 36.2661 120.3744 238° Southwest  Level Estimated
08:33PM 36.2661 120.3744 238° Southwest  Level Estimated
08:34PM 36.2661 120.3744 238° Southwest  Level Estimated
08:35PM 36.2661 120.3744 238° Southwest  Level Estimated
08:36PM 36.2661 120.3744 238° Southwest  Level Estimated
08:37PM 36.2661 120.3744 238° Southwest  Level Estimated
08:38PM 36.2661 120.3744 238° Southwest  Level Estimated
08:39PM 36.2661 120.3744 238° Southwest  Level Estimated
08:40PM 36.2661 120.3744 238° Southwest  Level Estimated